createdAt,value
2018-04-20T00:00:04.800Z,11.77
2018-04-20T00:02:32.684Z,11.80
2018-04-20T00:05:00.591Z,11.70
2018-04-20T00:07:28.466Z,11.87
2018-04-20T00:09:56.293Z,11.53
2018-04-20T00:12:24.158Z,11.60
2018-04-20T00:14:51.992Z,11.37
2018-04-20T00:17:19.834Z,11.87
2018-04-20T00:19:47.706Z,11.10
2018-04-20T00:22:15.730Z,11.00
2018-04-20T00:24:43.570Z,13.10
2018-04-20T00:27:11.451Z,12.50
2018-04-20T00:29:39.386Z,13.13
2018-04-20T00:32:07.883Z,12.87
2018-04-20T00:34:35.804Z,13.03
2018-04-20T00:37:03.670Z,12.10
2018-04-20T00:39:31.632Z,13.10
2018-04-20T00:41:59.620Z,13.13
2018-04-20T00:44:27.546Z,13.37
2018-04-20T00:46:55.432Z,12.57
2018-04-20T00:49:23.297Z,12.13
2018-04-20T00:51:51.113Z,13.10
2018-04-20T00:54:22.865Z,12.17
2018-04-20T00:56:50.693Z,12.70
2018-04-20T00:59:18.715Z,12.70
2018-04-20T01:01:46.658Z,11.67
2018-04-20T01:04:14.565Z,11.50
2018-04-20T01:06:42.516Z,12.30
2018-04-20T01:09:10.445Z,13.30
2018-04-20T01:11:38.272Z,13.27
2018-04-20T01:14:06.130Z,13.00
2018-04-20T01:16:34.090Z,12.87
2018-04-20T01:19:01.921Z,12.90
2018-04-20T01:21:29.817Z,13.30
2018-04-20T01:23:57.749Z,14.03
2018-04-20T01:26:25.727Z,14.03
2018-04-20T01:28:53.541Z,14.63
2018-04-20T01:31:21.409Z,13.73
2018-04-20T01:33:49.252Z,13.17
2018-04-20T01:36:17.099Z,13.60
2018-04-20T01:38:45.018Z,14.03
2018-04-20T01:41:12.958Z,13.80
2018-04-20T01:43:40.885Z,12.87
2018-04-20T01:46:08.844Z,14.57
2018-04-20T01:48:36.692Z,13.47
2018-04-20T01:51:04.653Z,15.00
2018-04-20T01:53:32.506Z,14.10
2018-04-20T01:56:00.326Z,15.27
2018-04-20T01:58:28.157Z,14.40
2018-04-20T02:00:56.006Z,15.00
2018-04-20T02:03:23.857Z,14.77
2018-04-20T02:05:51.959Z,14.80
2018-04-20T02:08:19.908Z,14.50
2018-04-20T02:10:47.746Z,15.20
2018-04-20T02:13:15.660Z,14.80
2018-04-20T02:15:43.502Z,15.13
2018-04-20T02:18:11.366Z,16.10
2018-04-20T02:20:39.195Z,14.83
2018-04-20T02:23:07.064Z,14.57
2018-04-20T02:25:34.997Z,15.17
2018-04-20T02:28:02.890Z,14.63
2018-04-20T02:30:30.794Z,15.93
2018-04-20T02:32:58.629Z,15.50
2018-04-20T02:35:26.449Z,15.23
2018-04-20T02:37:54.314Z,16.00
2018-04-20T02:40:22.171Z,15.20
2018-04-20T02:42:50.034Z,15.10
2018-04-20T02:45:17.894Z,16.23
2018-04-20T02:47:45.805Z,15.90
2018-04-20T02:50:13.698Z,15.90
2018-04-20T02:52:41.580Z,15.90
2018-04-20T02:55:09.422Z,15.73
2018-04-20T02:57:37.254Z,15.73
2018-04-20T03:00:05.146Z,16.80
2018-04-20T03:02:32.977Z,15.60
2018-04-20T03:05:00.803Z,16.10
2018-04-20T03:07:28.789Z,16.57
2018-04-20T03:09:56.614Z,16.43
2018-04-20T03:12:24.444Z,16.80
2018-04-20T03:14:52.294Z,17.40
2018-04-20T03:17:20.146Z,16.40
2018-04-20T03:19:47.970Z,16.43
2018-04-20T03:22:15.826Z,17.13
2018-04-20T03:24:43.683Z,17.80
2018-04-20T03:27:11.516Z,17.60
2018-04-20T03:29:39.390Z,17.40
2018-04-20T03:32:07.213Z,17.67
2018-04-20T03:34:35.106Z,18.67
2018-04-20T03:37:03.063Z,19.07
2018-04-20T03:39:30.982Z,19.80
2018-04-20T03:41:58.810Z,19.20
2018-04-20T03:44:26.771Z,19.83
2018-04-20T03:46:54.614Z,19.37
2018-04-20T03:49:22.445Z,19.37
2018-04-20T03:51:50.324Z,18.20
2018-04-20T03:54:18.159Z,19.63
2018-04-20T03:56:45.987Z,18.00
2018-04-20T03:59:13.842Z,18.93
2018-04-20T04:01:41.791Z,18.53
2018-04-20T04:04:09.668Z,20.00
2018-04-20T04:06:37.530Z,18.97
2018-04-20T04:09:05.459Z,19.40
2018-04-20T04:11:33.315Z,20.27
2018-04-20T04:14:01.212Z,19.00
2018-04-20T04:16:35.147Z,18.83
2018-04-20T04:19:09.094Z,19.30
2018-04-20T04:21:43.108Z,20.03
2018-04-20T04:24:17.153Z,20.20
2018-04-20T04:26:51.058Z,18.87
2018-04-20T04:29:19.015Z,19.77
2018-04-20T04:31:46.849Z,18.47
2018-04-20T04:34:14.822Z,19.10
2018-04-20T04:36:42.761Z,18.23
2018-04-20T04:39:10.694Z,19.00
2018-04-20T04:41:38.519Z,18.00
2018-04-20T04:44:06.532Z,18.83
2018-04-20T04:46:34.459Z,19.63
2018-04-20T04:49:02.304Z,18.27
2018-04-20T04:51:30.166Z,18.10
2018-04-20T04:53:57.995Z,19.30
2018-04-20T04:56:25.827Z,18.70
2018-04-20T04:58:53.683Z,18.93
2018-04-20T05:01:21.543Z,18.17
2018-04-20T05:03:49.395Z,19.07
2018-04-20T05:06:17.273Z,18.10
2018-04-20T05:08:45.111Z,18.07
2018-04-20T05:11:12.955Z,17.80
2018-04-20T05:13:40.863Z,18.73
2018-04-20T05:16:08.716Z,18.17
2018-04-20T05:18:36.555Z,17.40
2018-04-20T05:21:04.467Z,17.50
2018-04-20T05:23:32.326Z,16.97
2018-04-20T05:26:00.203Z,16.90
2018-04-20T05:28:28.107Z,17.90
2018-04-20T05:30:55.999Z,17.60
2018-04-20T05:33:23.911Z,17.40
2018-04-20T05:35:51.858Z,17.27
2018-04-20T05:38:19.698Z,17.20
2018-04-20T05:40:47.575Z,17.90
2018-04-20T05:43:15.493Z,16.80
2018-04-20T05:45:43.350Z,17.60
2018-04-20T05:48:11.226Z,17.00
2018-04-20T05:50:39.095Z,17.40
2018-04-20T05:53:06.942Z,16.50
2018-04-20T05:55:34.907Z,16.60
2018-04-20T05:58:02.915Z,16.57
2018-04-20T06:00:30.754Z,16.73
2018-04-20T06:02:58.659Z,18.27
2018-04-20T06:05:26.547Z,17.03
2018-04-20T06:07:54.388Z,16.40
2018-04-20T06:10:22.230Z,16.17
2018-04-20T06:12:50.123Z,16.43
2018-04-20T06:15:17.974Z,16.37
2018-04-20T06:17:45.867Z,16.33
2018-04-20T06:20:13.742Z,15.03
2018-04-20T06:22:41.592Z,15.20
2018-04-20T06:25:09.447Z,16.20
2018-04-20T06:27:37.347Z,15.47
2018-04-20T06:30:05.180Z,14.87
2018-04-20T06:32:33.009Z,15.03
2018-04-20T06:35:00.945Z,15.00
2018-04-20T06:37:28.837Z,15.20
2018-04-20T06:39:56.747Z,15.13
2018-04-20T06:42:24.603Z,14.80
2018-04-20T06:44:52.439Z,15.20
2018-04-20T06:47:20.284Z,16.83
2018-04-20T06:49:48.193Z,15.10
2018-04-20T06:52:16.018Z,13.57
2018-04-20T06:54:43.871Z,14.80
2018-04-20T06:57:11.753Z,13.40
2018-04-20T06:59:39.604Z,13.40
2018-04-20T07:02:07.461Z,14.07
2018-04-20T07:04:35.326Z,13.13
2018-04-20T07:07:03.175Z,13.67
2018-04-20T07:09:31.011Z,12.50
2018-04-20T07:11:58.958Z,12.20
2018-04-20T07:14:26.749Z,12.47
2018-04-20T07:16:54.570Z,12.27
2018-04-20T07:19:22.427Z,14.80
2018-04-20T07:21:50.288Z,11.57
2018-04-20T07:24:18.196Z,11.50
2018-04-20T07:26:46.063Z,12.00
2018-04-20T07:29:13.911Z,11.83
2018-04-20T07:31:41.747Z,10.63
2018-04-20T07:34:09.723Z,12.13
2018-04-20T07:36:37.651Z,10.50
2018-04-20T07:39:05.561Z,11.70
2018-04-20T07:41:33.556Z,10.43
2018-04-20T07:44:01.354Z,10.23
2018-04-20T07:46:29.194Z,9.80
2018-04-20T07:48:57.132Z,10.77
2018-04-20T07:51:25.020Z,9.60
2018-04-20T07:53:52.866Z,10.40
2018-04-20T07:56:20.726Z,9.03
2018-04-20T07:58:48.562Z,9.00
2018-04-20T08:01:16.390Z,9.07
2018-04-20T08:03:44.246Z,9.27
2018-04-20T08:06:12.090Z,7.93
2018-04-20T08:08:39.929Z,7.80
2018-04-20T08:11:07.805Z,7.10
2018-04-20T08:13:35.649Z,7.50
2018-04-20T08:16:03.497Z,7.93
2018-04-20T08:18:31.345Z,8.47
2018-04-20T08:20:59.170Z,7.00
2018-04-20T08:23:27.009Z,8.00
2018-04-20T08:25:54.879Z,7.20
2018-04-20T08:28:22.774Z,7.20
2018-04-20T08:30:50.599Z,6.97
2018-04-20T08:33:18.446Z,12.20
2018-04-20T08:35:46.265Z,7.10
2018-04-20T08:38:14.109Z,7.00
2018-04-20T08:40:41.974Z,6.80
2018-04-20T08:43:09.818Z,7.47
2018-04-20T08:45:37.649Z,7.07
2018-04-20T08:48:05.553Z,6.33
2018-04-20T08:50:33.389Z,6.70
2018-04-20T08:53:01.410Z,6.17
2018-04-20T08:55:29.265Z,5.93
2018-04-20T08:57:57.146Z,6.90
2018-04-20T09:00:24.977Z,6.70
2018-04-20T09:02:52.829Z,6.30
2018-04-20T09:05:20.665Z,7.50
2018-04-20T09:07:49.580Z,6.70
2018-04-20T09:10:17.525Z,6.33
2018-04-20T09:12:45.353Z,6.30
2018-04-20T09:15:13.185Z,6.10
2018-04-20T09:17:41.049Z,6.70
2018-04-20T09:20:08.887Z,6.03
2018-04-20T09:22:36.726Z,10.90
2018-04-20T09:25:04.581Z,7.17
2018-04-20T09:27:32.458Z,8.37
2018-04-20T09:30:00.294Z,7.03
2018-04-20T09:32:28.178Z,6.10
2018-04-20T09:34:56.034Z,7.70
2018-04-20T09:37:23.913Z,6.97
2018-04-20T09:39:51.814Z,6.40
2018-04-20T09:42:19.962Z,7.07
2018-04-20T09:44:48.149Z,6.50
2018-04-20T09:47:16.536Z,6.33
2018-04-20T09:49:44.476Z,5.90
2018-04-20T09:52:12.329Z,9.00
2018-04-20T09:54:40.222Z,6.27
2018-04-20T09:57:08.123Z,6.70
2018-04-20T09:59:36.070Z,6.40
2018-04-20T10:02:03.965Z,6.40
2018-04-20T10:04:31.833Z,6.53
2018-04-20T10:06:59.692Z,6.20
2018-04-20T10:09:27.610Z,7.00
2018-04-20T10:11:55.498Z,6.87
2018-04-20T10:14:23.391Z,6.20
2018-04-20T10:16:51.270Z,6.63
2018-04-20T10:19:19.134Z,9.13
2018-04-20T10:21:46.983Z,9.73
2018-04-20T10:24:14.881Z,7.07
2018-04-20T10:26:42.755Z,6.37
2018-04-20T10:29:10.591Z,6.90
2018-04-20T10:31:38.479Z,6.40
2018-04-20T10:34:06.380Z,9.50
2018-04-20T10:36:34.568Z,5.97
2018-04-20T10:39:02.556Z,5.97
2018-04-20T10:41:30.412Z,5.50
2018-04-20T10:43:58.262Z,6.20
2018-04-20T10:46:26.161Z,6.53
2018-04-20T10:48:53.999Z,4.93
2018-04-20T10:51:21.827Z,5.10
2018-04-20T10:53:49.691Z,4.83
2018-04-20T10:56:17.588Z,4.70
2018-04-20T10:58:46.505Z,5.60
2018-04-20T11:01:14.395Z,4.13
2018-04-20T11:03:42.239Z,4.67
2018-04-20T11:06:10.071Z,4.83
2018-04-20T11:08:37.953Z,4.20
2018-04-20T11:11:05.783Z,3.97
2018-04-20T11:13:33.673Z,4.37
2018-04-20T11:16:01.596Z,4.50
2018-04-20T11:18:29.425Z,4.47
2018-04-20T11:20:57.279Z,3.97
2018-04-20T11:23:25.121Z,4.70
2018-04-20T11:25:52.961Z,4.03
2018-04-20T11:28:20.831Z,4.50
2018-04-20T11:30:48.681Z,3.57
2018-04-20T11:33:16.531Z,3.53
2018-04-20T11:35:44.601Z,3.50
2018-04-20T11:38:12.477Z,4.00
2018-04-20T11:40:40.395Z,3.83
2018-04-20T11:43:08.326Z,3.90
2018-04-20T11:45:36.242Z,4.00
2018-04-20T11:48:04.099Z,3.80
2018-04-20T11:50:31.963Z,4.10
2018-04-20T11:52:59.968Z,3.73
2018-04-20T11:55:27.793Z,4.20
2018-04-20T11:57:55.685Z,3.87
2018-04-20T12:00:23.686Z,4.33
2018-04-20T12:02:51.599Z,4.53
2018-04-20T12:05:19.514Z,3.83
2018-04-20T12:07:48.504Z,3.80
2018-04-20T12:10:18.492Z,3.90
2018-04-20T12:12:46.383Z,4.00
2018-04-20T12:15:14.222Z,3.97
2018-04-20T12:17:42.084Z,4.93
2018-04-20T12:20:09.945Z,4.90
2018-04-20T12:22:37.773Z,7.40
2018-04-20T12:25:05.610Z,4.20
2018-04-20T12:27:33.484Z,4.03
2018-04-20T12:30:02.240Z,4.40
2018-04-20T12:32:30.067Z,4.30
2018-04-20T12:34:57.926Z,4.60
2018-04-20T12:37:25.842Z,4.40
2018-04-20T12:39:53.682Z,5.60
2018-04-20T12:42:21.671Z,5.10
2018-04-20T12:44:51.836Z,4.40
2018-04-20T12:47:20.524Z,4.47
2018-04-20T12:49:48.611Z,4.80
2018-04-20T12:52:16.457Z,7.53
2018-04-20T12:54:44.348Z,4.50
2018-04-20T12:57:12.213Z,4.30
2018-04-20T12:59:40.060Z,4.30
2018-04-20T13:02:07.963Z,7.63
2018-04-20T13:04:35.855Z,4.70
2018-04-20T13:07:03.696Z,6.70
2018-04-20T13:09:31.561Z,7.17
2018-04-20T13:12:03.353Z,6.83
2018-04-20T13:14:31.376Z,4.47
2018-04-20T13:16:59.635Z,7.07
2018-04-20T13:19:27.582Z,4.93
2018-04-20T13:21:55.476Z,6.90
2018-04-20T13:24:24.454Z,7.10
2018-04-20T13:26:52.327Z,4.63
2018-04-20T13:29:20.179Z,5.10
2018-04-20T13:31:48.088Z,4.77
2018-04-20T13:34:16.078Z,5.07
2018-04-20T13:36:44.036Z,4.73
2018-04-20T13:39:11.985Z,4.80
2018-04-20T13:41:39.855Z,4.20
2018-04-20T13:44:07.726Z,5.27
2018-04-20T13:46:35.561Z,4.80
2018-04-20T13:49:03.477Z,4.80
2018-04-20T13:51:31.285Z,4.80
2018-04-20T13:53:59.145Z,4.80
2018-04-20T13:56:27.039Z,4.50
2018-04-20T13:58:54.918Z,5.13
2018-04-20T14:01:24.892Z,4.70
2018-04-20T14:03:52.768Z,5.87
2018-04-20T14:06:20.598Z,5.50
2018-04-20T14:08:48.438Z,4.90
2018-04-20T14:11:16.294Z,4.57
2018-04-20T14:13:44.132Z,4.53
2018-04-20T14:16:11.988Z,5.07
2018-04-20T14:18:39.931Z,5.20
2018-04-20T14:21:07.804Z,4.80
2018-04-20T14:23:35.672Z,5.30
2018-04-20T14:26:03.529Z,5.23
2018-04-20T14:28:32.418Z,4.60
2018-04-20T14:31:00.245Z,5.30
2018-04-20T14:33:28.153Z,4.73
2018-04-20T14:35:55.990Z,6.57
2018-04-20T14:38:23.880Z,5.67
2018-04-20T14:40:51.800Z,5.73
2018-04-20T14:43:19.709Z,5.47
2018-04-20T14:45:47.603Z,5.37
2018-04-20T14:48:15.457Z,5.43
2018-04-20T14:50:43.378Z,7.30
2018-04-20T14:53:11.304Z,5.80
2018-04-20T14:55:39.167Z,5.70
2018-04-20T14:58:07.059Z,5.07
2018-04-20T15:00:38.039Z,5.57
2018-04-20T15:03:06.032Z,5.90
2018-04-20T15:05:33.864Z,6.40
2018-04-20T15:08:01.704Z,4.83
2018-04-20T15:10:29.623Z,5.50
2018-04-20T15:12:57.487Z,5.67
2018-04-20T15:15:25.347Z,5.30
2018-04-20T15:17:53.478Z,5.47
2018-04-20T15:20:21.404Z,5.17
2018-04-20T15:22:49.355Z,5.13
2018-04-20T15:25:17.335Z,5.67
2018-04-20T15:27:45.211Z,5.27
2018-04-20T15:30:13.174Z,5.87
2018-04-20T15:32:41.082Z,6.03
2018-04-20T15:35:11.076Z,5.87
2018-04-20T15:37:38.929Z,6.20
2018-04-20T15:40:06.807Z,6.37
2018-04-20T15:42:34.706Z,6.40
2018-04-20T15:45:02.667Z,5.10
2018-04-20T15:47:30.621Z,5.33
2018-04-20T15:49:58.537Z,6.30
2018-04-20T15:52:26.402Z,6.13
2018-04-20T15:54:54.280Z,5.63
2018-04-20T15:57:22.136Z,6.30
2018-04-20T15:59:50.007Z,5.83
2018-04-20T16:02:17.875Z,6.03
2018-04-20T16:04:45.762Z,5.93
2018-04-20T16:07:13.598Z,6.90
2018-04-20T16:09:41.551Z,6.50
2018-04-20T16:12:09.400Z,6.37
2018-04-20T16:14:37.331Z,6.33
2018-04-20T16:17:05.215Z,5.60
2018-04-20T16:19:33.058Z,6.23
2018-04-20T16:22:00.894Z,5.93
2018-04-20T16:24:28.759Z,6.90
2018-04-20T16:26:56.588Z,6.83
2018-04-20T16:29:24.465Z,6.90
2018-04-20T16:31:52.343Z,6.07
2018-04-20T16:34:20.176Z,6.93
2018-04-20T16:36:48.054Z,6.60
2018-04-20T16:39:16.091Z,6.63
2018-04-20T16:41:43.803Z,6.27
2018-04-20T16:44:11.635Z,6.23
2018-04-20T16:46:39.681Z,6.80
2018-04-20T16:49:07.709Z,7.03
2018-04-20T16:51:35.548Z,6.07
2018-04-20T16:54:03.479Z,6.20
2018-04-20T16:56:31.422Z,6.07
2018-04-20T16:58:59.341Z,7.07
2018-04-20T17:01:27.269Z,6.90
2018-04-20T17:03:55.075Z,6.40
2018-04-20T17:06:22.927Z,7.07
2018-04-20T17:08:50.810Z,6.73
2018-04-20T17:11:18.668Z,6.57
2018-04-20T17:13:46.502Z,6.80
2018-04-20T17:16:14.371Z,6.97
2018-04-20T17:18:42.216Z,7.23
2018-04-20T17:21:10.968Z,9.60
2018-04-20T17:23:38.827Z,6.97
2018-04-20T17:26:06.670Z,7.30
2018-04-20T17:28:34.511Z,8.83
2018-04-20T17:31:02.433Z,8.03
2018-04-20T17:33:31.283Z,8.50
2018-04-20T17:35:59.169Z,9.57
2018-04-20T17:38:27.025Z,8.20
2018-04-20T17:40:54.886Z,8.20
2018-04-20T17:43:22.727Z,8.60
2018-04-20T17:45:50.595Z,8.20
2018-04-20T17:48:18.434Z,10.70
2018-04-20T17:50:46.294Z,12.10
2018-04-20T17:53:14.165Z,10.90
2018-04-20T17:55:41.999Z,10.70
2018-04-20T17:58:09.905Z,9.13
2018-04-20T18:00:37.779Z,9.13
2018-04-20T18:03:05.628Z,9.40
2018-04-20T18:05:33.530Z,10.60
2018-04-20T18:08:01.411Z,11.50
2018-04-20T18:10:29.248Z,11.40
2018-04-20T18:12:57.136Z,12.47
2018-04-20T18:15:25.003Z,11.60
2018-04-20T18:17:52.864Z,11.93
2018-04-20T18:20:21.869Z,12.27
2018-04-20T18:22:49.767Z,11.40
2018-04-20T18:25:17.678Z,11.13
2018-04-20T18:27:45.515Z,11.93
2018-04-20T18:30:13.364Z,13.10
2018-04-20T18:32:41.254Z,11.40
2018-04-20T18:35:09.103Z,10.90
2018-04-20T18:37:36.984Z,12.70
2018-04-20T18:40:04.868Z,13.00
2018-04-20T18:42:32.707Z,12.67
2018-04-20T18:45:00.648Z,13.10
2018-04-20T18:47:28.505Z,11.70
2018-04-20T18:49:56.380Z,14.50
2018-04-20T18:52:24.272Z,13.90
2018-04-20T18:54:52.120Z,14.37
2018-04-20T18:57:20.003Z,15.50
2018-04-20T18:59:47.873Z,15.77
2018-04-20T19:02:15.743Z,14.50
2018-04-20T19:04:43.583Z,14.23
2018-04-20T19:07:11.494Z,15.90
2018-04-20T19:09:39.384Z,13.90
2018-04-20T19:12:07.226Z,13.37
2018-04-20T19:14:35.140Z,15.57
2018-04-20T19:17:03.010Z,13.43
2018-04-20T19:19:30.926Z,13.80
2018-04-20T19:21:58.808Z,14.23
2018-04-20T19:24:26.697Z,19.00
2018-04-20T19:26:54.563Z,13.20
2018-04-20T19:29:22.556Z,13.40
2018-04-20T19:31:50.411Z,13.57
2018-04-20T19:34:18.449Z,13.93
2018-04-20T19:36:46.389Z,13.67
2018-04-20T19:39:14.249Z,15.63
2018-04-20T19:41:42.174Z,15.03
2018-04-20T19:44:10.031Z,19.90
2018-04-20T19:46:37.915Z,14.20
2018-04-20T19:49:05.862Z,14.97
2018-04-20T19:51:33.767Z,14.60
2018-04-20T19:54:01.609Z,14.83
2018-04-20T19:56:29.463Z,14.40
2018-04-20T19:58:57.342Z,14.20
2018-04-20T20:01:25.227Z,14.70
2018-04-20T20:03:53.083Z,14.10
2018-04-20T20:06:20.962Z,15.70
2018-04-20T20:08:48.827Z,14.70
2018-04-20T20:11:16.658Z,13.53
2018-04-20T20:13:44.551Z,14.60
2018-04-20T20:16:12.424Z,13.40
2018-04-20T20:18:40.259Z,14.07
2018-04-20T20:21:08.123Z,14.90
2018-04-20T20:23:35.986Z,13.93
2018-04-20T20:26:03.830Z,13.90
2018-04-20T20:28:31.699Z,13.83
2018-04-20T20:30:59.533Z,15.03
2018-04-20T20:33:27.392Z,13.83
2018-04-20T20:35:55.301Z,16.27
2018-04-20T20:38:23.169Z,14.63
2018-04-20T20:40:51.051Z,22.37
2018-04-20T20:43:22.438Z,15.77
2018-04-20T20:45:50.279Z,14.93
2018-04-20T20:48:18.115Z,16.43
2018-04-20T20:50:46.010Z,16.00
2018-04-20T20:53:13.896Z,16.07
2018-04-20T20:55:41.811Z,16.10
2018-04-20T20:58:09.713Z,16.00
2018-04-20T21:00:37.653Z,15.57
2018-04-20T21:03:05.495Z,15.07
2018-04-20T21:05:33.382Z,15.80
2018-04-20T21:08:01.227Z,15.43
2018-04-20T21:10:29.079Z,14.83
2018-04-20T21:12:56.948Z,15.57
2018-04-20T21:15:24.804Z,14.63
2018-04-20T21:17:52.683Z,15.27
2018-04-20T21:20:20.571Z,15.77
2018-04-20T21:22:48.423Z,15.03
2018-04-20T21:25:16.319Z,16.40
2018-04-20T21:27:44.200Z,15.90
2018-04-20T21:30:12.086Z,16.17
2018-04-20T21:32:39.984Z,14.80
2018-04-20T21:35:07.859Z,15.10
2018-04-20T21:37:35.694Z,15.77
2018-04-20T21:40:03.551Z,15.67
2018-04-20T21:42:31.454Z,16.20
2018-04-20T21:44:59.292Z,16.30
2018-04-20T21:47:27.126Z,16.53
2018-04-20T21:49:54.991Z,16.90
2018-04-20T21:52:22.835Z,15.73
2018-04-20T21:54:50.679Z,15.80
2018-04-20T21:57:18.565Z,17.77
2018-04-20T21:59:47.494Z,20.03
2018-04-20T22:02:15.326Z,28.03
2018-04-20T22:04:43.196Z,23.30
2018-04-20T22:07:11.039Z,18.90
2018-04-20T22:09:38.879Z,15.83
2018-04-20T22:12:06.746Z,16.00
2018-04-20T22:14:34.581Z,15.80
2018-04-20T22:17:02.427Z,15.10
2018-04-20T22:19:30.285Z,15.67
2018-04-20T22:21:58.989Z,14.90
2018-04-20T22:24:26.839Z,15.10
2018-04-20T22:26:55.671Z,15.07
2018-04-20T22:29:23.497Z,14.77
2018-04-20T22:31:51.349Z,14.13
2018-04-20T22:34:19.244Z,14.03
2018-04-20T22:36:47.080Z,14.50
2018-04-20T22:39:14.931Z,14.30
2018-04-20T22:41:42.785Z,14.03
2018-04-20T22:44:10.636Z,15.20
2018-04-20T22:46:38.489Z,13.17
2018-04-20T22:49:06.365Z,15.80
2018-04-20T22:51:34.207Z,12.70
2018-04-20T22:54:02.056Z,13.53
2018-04-20T22:56:30.919Z,15.00
2018-04-20T22:58:58.761Z,15.50
2018-04-20T23:01:26.613Z,15.87
2018-04-20T23:03:54.481Z,20.80
2018-04-20T23:06:22.340Z,18.60
2018-04-20T23:08:50.219Z,21.20
2018-04-20T23:11:18.108Z,19.03
2018-04-20T23:13:45.939Z,15.20
2018-04-20T23:16:13.765Z,16.43
2018-04-20T23:18:42.757Z,17.73
2018-04-20T23:21:10.583Z,15.97
2018-04-20T23:23:38.417Z,15.97
2018-04-20T23:26:06.307Z,15.93
2018-04-20T23:28:34.144Z,20.83
2018-04-20T23:31:01.992Z,17.27
2018-04-20T23:33:29.860Z,18.43
2018-04-20T23:35:57.714Z,17.20
2018-04-20T23:38:25.544Z,17.93
2018-04-20T23:40:53.407Z,19.63
2018-04-20T23:43:21.246Z,22.30
2018-04-20T23:45:49.095Z,18.97
2018-04-20T23:48:16.960Z,19.50
2018-04-20T23:50:44.785Z,30.80
2018-04-20T23:53:12.641Z,24.10
2018-04-20T23:55:40.513Z,29.67
2018-04-20T23:58:08.350Z,28.37
